Time;durP1;ratioP1;P1;durP2;ratioP2;P2;SDS_P1;SDS_P2;PMS_P1;PMS_P2;Temp;Humidity;BMP_temperature;BMP_pressure;BME280_temperature;BME280_humidity;BME280_pressure;Samples;Min_cycle;Max_cycle;Signal;HPM_P1;HPM_P2
2023/08/30 00:01:04;;;;;;;14.53;13.10;;;13.40;99.90;;;;;;4984039;28;20180;-73
2023/08/30 00:03:30;;;;;;;14.33;13.17;;;13.40;99.90;;;;;;4984905;28;20179;-73
2023/08/30 00:05:55;;;;;;;14.30;13.10;;;13.50;99.90;;;;;;4984476;28;20459;-73
2023/08/30 00:08:21;;;;;;;12.80;11.80;;;13.50;99.90;;;;;;4982280;28;20587;-73
2023/08/30 00:10:47;;;;;;;14.80;13.77;;;13.60;99.90;;;;;;4976902;28;20215;-73
2023/08/30 00:13:13;;;;;;;13.90;12.90;;;13.50;99.90;;;;;;4973236;28;20180;-73
2023/08/30 00:15:39;;;;;;;13.60;12.60;;;13.50;99.90;;;;;;4975020;28;20473;-73
2023/08/30 00:18:05;;;;;;;14.87;13.57;;;13.50;99.90;;;;;;4979959;28;20187;-73
2023/08/30 00:20:31;;;;;;;14.97;13.70;;;13.40;99.90;;;;;;4976240;28;20462;-73
2023/08/30 00:22:56;;;;;;;15.33;14.10;;;13.40;99.90;;;;;;4982101;28;20443;-73
2023/08/30 00:25:22;;;;;;;14.23;13.20;;;13.40;99.90;;;;;;4972990;28;20247;-73
2023/08/30 00:27:47;;;;;;;15.00;13.87;;;13.40;99.90;;;;;;4980646;28;20838;-73
2023/08/30 00:30:13;;;;;;;15.27;14.07;;;13.40;99.90;;;;;;4983285;28;20717;-73
2023/08/30 00:32:38;;;;;;;15.57;14.10;;;13.40;99.90;;;;;;4977361;28;20263;-73
2023/08/30 00:35:04;;;;;;;15.00;13.80;;;13.30;99.90;;;;;;4978127;28;20664;-73
2023/08/30 00:37:30;;;;;;;14.13;12.70;;;13.40;99.90;;;;;;4977997;28;20176;-73
2023/08/30 00:39:55;;;;;;;14.77;13.47;;;13.40;99.90;;;;;;4980543;28;20203;-73
2023/08/30 00:42:21;;;;;;;16.10;14.77;;;13.40;99.90;;;;;;4984527;28;20555;-73
2023/08/30 00:44:46;;;;;;;14.90;13.73;;;13.40;99.90;;;;;;4972923;28;20208;-73
2023/08/30 00:47:12;;;;;;;14.90;13.77;;;13.40;99.90;;;;;;4985040;28;20274;-73
2023/08/30 00:49:37;;;;;;;14.13;13.03;;;13.40;99.90;;;;;;4970194;28;20191;-73
2023/08/30 00:52:07;;;;;;;13.37;12.37;;;13.40;99.90;;;;;;4984508;28;20657;-73
2023/08/30 00:54:33;;;;;;;15.00;13.83;;;13.40;99.90;;;;;;4981715;28;20180;-73
2023/08/30 00:57:01;;;;;;;15.63;14.10;;;13.40;99.90;;;;;;4973662;28;20469;-73
2023/08/30 00:59:27;;;;;;;14.30;13.30;;;13.40;99.90;;;;;;4971728;28;20226;-72
2023/08/30 01:01:53;;;;;;;13.60;12.60;;;13.40;99.90;;;;;;4980551;28;20942;-73
2023/08/30 01:04:19;;;;;;;14.53;13.13;;;13.40;99.90;;;;;;4981822;28;20474;-73
2023/08/30 01:06:44;;;;;;;14.53;13.33;;;13.40;99.90;;;;;;4983434;28;20458;-73
2023/08/30 01:09:11;;;;;;;14.30;13.20;;;13.40;99.90;;;;;;4976098;28;20462;-73
2023/08/30 01:11:46;;;;;;;13.20;11.43;;;13.30;99.90;;;;;;4979643;28;20230;-73
2023/08/30 01:14:16;;;;;;;14.00;12.90;;;13.30;99.90;;;;;;4964712;28;20442;-73
2023/08/30 01:16:43;;;;;;;16.50;14.90;;;13.30;99.90;;;;;;4970328;28;20985;-73
2023/08/30 01:19:38;;;;;;;14.20;13.00;;;13.40;99.90;;;;;;4975704;28;20517;-73
2023/08/30 01:22:55;;;;;;;14.60;13.50;;;13.30;99.90;;;;;;4980767;28;20436;-73
2023/08/30 01:25:45;;;;;;;14.63;13.43;;;13.30;99.90;;;;;;4913437;29;20469;-73
2023/08/30 01:28:13;;;;;;;14.27;12.97;;;13.40;99.90;;;;;;4911974;29;20475;-72
2023/08/30 01:30:41;;;;;;;14.90;13.60;;;13.40;99.90;;;;;;4958756;28;20467;-73
2023/08/30 01:33:08;;;;;;;15.20;13.90;;;13.20;99.90;;;;;;4981072;28;20565;-72
2023/08/30 01:35:36;;;;;;;14.07;12.97;;;13.20;99.90;;;;;;4980614;28;20586;-73
2023/08/30 01:38:04;;;;;;;14.00;12.80;;;13.20;99.90;;;;;;4972041;28;20439;-73
2023/08/30 01:40:35;;;;;;;14.27;12.97;;;13.20;99.90;;;;;;4970152;28;20440;-73
2023/08/30 01:43:02;;;;;;;14.50;13.30;;;13.20;99.90;;;;;;4974799;28;20459;-73
2023/08/30 01:45:29;;;;;;;14.97;13.50;;;13.10;99.90;;;;;;4973447;28;20463;-73
2023/08/30 01:47:56;;;;;;;14.40;13.30;;;13.10;99.90;;;;;;4986642;28;20580;-73
2023/08/30 01:50:21;;;;;;;14.77;13.63;;;13.20;99.90;;;;;;4974765;28;20982;-73
2023/08/30 01:52:48;;;;;;;14.47;13.27;;;13.20;99.90;;;;;;4979898;28;20525;-73
2023/08/30 01:55:15;;;;;;;16.37;14.90;;;13.10;99.90;;;;;;4981564;28;20200;-73
2023/08/30 01:57:40;;;;;;;14.40;13.20;;;13.10;99.90;;;;;;4969647;28;20443;-73
2023/08/30 02:00:06;;;;;;;13.40;12.23;;;13.10;99.90;;;;;;4980094;28;20914;-73
2023/08/30 02:02:32;;;;;;;13.90;12.90;;;13.20;99.90;;;;;;4972868;28;20169;-73
2023/08/30 02:04:58;;;;;;;13.47;12.37;;;13.10;99.90;;;;;;4972925;28;20423;-73
2023/08/30 02:07:43;;;;;;;13.47;12.20;;;13.20;99.90;;;;;;4972039;28;20778;-73
2023/08/30 02:10:15;;;;;;;14.60;13.40;;;13.20;99.90;;;;;;4980986;28;20171;-73
2023/08/30 02:12:49;;;;;;;13.83;12.70;;;13.20;99.90;;;;;;4974149;28;20435;-73
2023/08/30 02:15:17;;;;;;;13.90;12.90;;;13.20;99.90;;;;;;4969799;28;20850;-73
2023/08/30 02:17:43;;;;;;;13.33;12.23;;;13.20;99.90;;;;;;4971902;28;20431;-73
2023/08/30 02:20:09;;;;;;;15.27;13.67;;;13.20;99.90;;;;;;4971246;28;20991;-73
2023/08/30 02:22:35;;;;;;;14.10;12.90;;;13.20;99.90;;;;;;4979041;28;20470;-73
2023/08/30 02:25:04;;;;;;;14.50;13.30;;;13.20;99.90;;;;;;4980106;28;20184;-73
2023/08/30 02:27:33;;;;;;;14.60;13.40;;;13.20;99.90;;;;;;4985433;28;20219;-73
2023/08/30 02:29:58;;;;;;;13.93;12.87;;;13.10;99.90;;;;;;4973070;28;20851;-72
2023/08/30 02:32:24;;;;;;;13.30;12.30;;;13.10;99.90;;;;;;4980055;28;20475;-73
2023/08/30 02:34:51;;;;;;;14.80;13.53;;;13.30;99.90;;;;;;4983035;28;20184;-73
2023/08/30 02:37:17;;;;;;;15.23;14.03;;;13.10;99.90;;;;;;4973681;28;20190;-73
2023/08/30 02:39:43;;;;;;;17.80;16.33;;;13.00;99.90;;;;;;4974596;28;20441;-73
2023/08/30 02:42:08;;;;;;;16.07;14.77;;;13.00;99.90;;;;;;4980314;28;21018;-73
2023/08/30 02:44:34;;;;;;;15.43;14.13;;;12.90;99.90;;;;;;4980785;28;20176;-73
2023/08/30 02:46:59;;;;;;;14.70;13.50;;;12.90;99.90;;;;;;4976169;28;20204;-73
2023/08/30 02:49:25;;;;;;;13.33;12.23;;;12.90;99.90;;;;;;4972897;28;20196;-73
2023/08/30 02:51:50;;;;;;;13.37;12.13;;;12.80;99.90;;;;;;4973868;28;20216;-73
2023/08/30 02:54:16;;;;;;;15.30;13.90;;;12.80;99.90;;;;;;4974256;28;20553;-73
2023/08/30 02:56:45;;;;;;;13.60;12.47;;;12.70;99.90;;;;;;4974630;28;20200;-73
2023/08/30 02:59:11;;;;;;;14.47;13.13;;;12.70;99.90;;;;;;4972889;28;20183;-73
2023/08/30 03:01:37;;;;;;;15.60;14.23;;;12.70;99.90;;;;;;4979579;28;20450;-73
2023/08/30 03:04:07;;;;;;;14.97;13.77;;;12.60;99.90;;;;;;4977971;28;20541;-73
2023/08/30 03:06:34;;;;;;;15.07;13.63;;;12.70;99.90;;;;;;4985941;28;20623;-73
2023/08/30 03:08:59;;;;;;;13.77;12.67;;;12.60;99.90;;;;;;4984335;28;20434;-73
2023/08/30 03:11:25;;;;;;;25.77;23.27;;;12.60;99.90;;;;;;4985515;28;20870;-73
2023/08/30 03:13:53;;;;;;;28.33;25.83;;;12.60;99.90;;;;;;4977015;28;20183;-73
2023/08/30 03:16:19;;;;;;;51.73;46.13;;;12.60;99.90;;;;;;4974886;28;20234;-73
2023/08/30 03:18:44;;;;;;;102.87;92.27;;;12.60;99.90;;;;;;4973374;28;20970;-73
2023/08/30 03:21:11;;;;;;;78.63;70.43;;;12.60;99.90;;;;;;4980989;28;20177;-73
2023/08/30 03:23:38;;;;;;;76.10;68.40;;;12.60;99.90;;;;;;4990740;28;20195;-73
2023/08/30 03:26:10;;;;;;;43.43;39.10;;;12.60;99.90;;;;;;4978544;28;20554;-73
2023/08/30 03:28:36;;;;;;;33.20;29.90;;;12.50;99.90;;;;;;4977492;28;20454;-73
2023/08/30 03:31:02;;;;;;;30.57;27.70;;;12.50;99.90;;;;;;4977008;28;20474;-73
2023/08/30 03:33:28;;;;;;;22.23;20.13;;;12.50;99.90;;;;;;4973684;28;20515;-73
2023/08/30 03:35:53;;;;;;;16.43;15.03;;;12.50;99.90;;;;;;4978679;28;20204;-73
2023/08/30 03:38:19;;;;;;;18.70;15.77;;;12.50;99.90;;;;;;4990475;28;20187;-73
2023/08/30 03:40:44;;;;;;;17.80;16.30;;;12.60;99.90;;;;;;4978254;28;20602;-73
2023/08/30 03:43:10;;;;;;;19.10;17.40;;;12.60;99.90;;;;;;4972705;28;20199;-73
2023/08/30 03:45:36;;;;;;;17.13;15.80;;;12.60;99.90;;;;;;4979365;28;20212;-73
2023/08/30 03:48:03;;;;;;;15.87;14.60;;;12.70;99.90;;;;;;4974686;28;20751;-73
2023/08/30 03:50:29;;;;;;;15.97;14.40;;;12.70;99.90;;;;;;4982303;28;20967;-73
2023/08/30 03:52:54;;;;;;;16.43;15.03;;;12.70;99.90;;;;;;4976457;28;20443;-73
2023/08/30 03:55:21;;;;;;;17.40;16.00;;;12.70;99.90;;;;;;4988508;28;20211;-73
2023/08/30 03:57:46;;;;;;;16.70;15.20;;;12.80;99.90;;;;;;4976022;28;20264;-73
2023/08/30 04:00:12;;;;;;;15.63;14.37;;;12.80;99.90;;;;;;4982349;28;20526;-73
2023/08/30 04:02:37;;;;;;;15.50;14.20;;;12.80;99.90;;;;;;4978131;28;20235;-73
2023/08/30 04:05:08;;;;;;;15.10;13.90;;;12.80;99.90;;;;;;4976520;28;20175;-73
2023/08/30 04:07:33;;;;;;;14.33;13.13;;;12.80;99.90;;;;;;4974821;28;20647;-73
2023/08/30 04:09:59;;;;;;;16.87;15.23;;;12.80;99.90;;;;;;4980649;28;20428;-73
2023/08/30 04:12:24;;;;;;;15.63;14.20;;;12.80;99.90;;;;;;4974106;28;20208;-73
2023/08/30 04:14:50;;;;;;;17.70;15.97;;;12.80;99.90;;;;;;4985115;28;20246;-73
2023/08/30 04:17:15;;;;;;;15.97;14.53;;;12.80;99.90;;;;;;4973615;28;20239;-73
2023/08/30 04:19:41;;;;;;;20.10;15.40;;;12.80;99.90;;;;;;4971429;28;20180;-73
2023/08/30 04:22:06;;;;;;;16.80;15.20;;;12.90;99.90;;;;;;4975384;28;20187;-73
2023/08/30 04:24:32;;;;;;;16.03;14.63;;;12.80;99.90;;;;;;4979431;28;20668;-73
2023/08/30 04:26:57;;;;;;;16.17;14.83;;;12.90;99.90;;;;;;4979698;28;20211;-73
2023/08/30 04:29:23;;;;;;;18.63;17.03;;;12.70;99.90;;;;;;4989987;28;20254;-73
2023/08/30 04:31:48;;;;;;;18.83;17.13;;;12.70;99.90;;;;;;4978307;28;20227;-72
2023/08/30 04:34:16;;;;;;;17.60;15.87;;;12.70;99.90;;;;;;4972130;28;20647;-73
2023/08/30 04:36:41;;;;;;;19.50;17.70;;;12.60;99.90;;;;;;4974303;28;20608;-72
2023/08/30 04:39:07;;;;;;;19.37;17.63;;;12.60;99.90;;;;;;4971228;28;20435;-73
2023/08/30 04:41:33;;;;;;;19.43;17.43;;;12.60;99.90;;;;;;4972366;28;20191;-72
2023/08/30 04:43:59;;;;;;;20.60;18.63;;;12.60;99.90;;;;;;4979783;28;20192;-73
2023/08/30 04:46:24;;;;;;;19.90;18.20;;;12.60;99.90;;;;;;4978892;28;20522;-73
2023/08/30 04:48:50;;;;;;;21.57;19.37;;;12.60;99.90;;;;;;4971223;28;20184;-72
2023/08/30 04:51:15;;;;;;;19.57;17.87;;;12.60;99.90;;;;;;4993300;28;20206;-73
2023/08/30 04:53:42;;;;;;;20.03;18.27;;;12.60;99.90;;;;;;4989622;28;20171;-73
2023/08/30 04:56:15;;;;;;;18.07;16.40;;;12.70;99.90;;;;;;4978280;28;20673;-73
2023/08/30 04:58:40;;;;;;;20.60;18.63;;;12.70;99.90;;;;;;4980896;28;20787;-73
2023/08/30 05:01:06;;;;;;;20.23;18.43;;;12.70;99.90;;;;;;4978292;28;20446;-73
2023/08/30 05:03:32;;;;;;;18.53;16.73;;;12.80;99.90;;;;;;4971170;28;20549;-73
2023/08/30 05:05:58;;;;;;;19.27;17.47;;;12.80;99.90;;;;;;4973387;28;21067;-73
2023/08/30 05:08:23;;;;;;;17.77;16.17;;;12.80;99.90;;;;;;4981643;28;20475;-72
2023/08/30 05:10:49;;;;;;;16.87;15.07;;;12.90;99.90;;;;;;4979899;28;20214;-73
2023/08/30 05:13:16;;;;;;;19.10;17.33;;;13.00;99.90;;;;;;4981578;28;20637;-73
2023/08/30 05:15:42;;;;;;;19.40;17.77;;;13.00;99.90;;;;;;4981786;28;20483;-73
2023/08/30 05:18:07;;;;;;;19.63;17.03;;;13.10;99.90;;;;;;4992815;28;20418;-73
2023/08/30 05:20:33;;;;;;;17.67;16.00;;;13.10;99.90;;;;;;4974337;28;20181;-73
2023/08/30 05:22:59;;;;;;;17.20;15.70;;;13.10;99.90;;;;;;4972362;28;20188;-73
2023/08/30 05:25:26;;;;;;;16.17;14.60;;;13.20;99.90;;;;;;4973072;28;20212;-73
2023/08/30 05:27:51;;;;;;;14.43;13.23;;;13.30;99.90;;;;;;4972480;28;20292;-73
2023/08/30 05:30:17;;;;;;;16.17;14.77;;;13.30;99.90;;;;;;4971825;28;20990;-73
2023/08/30 05:32:42;;;;;;;16.00;14.70;;;13.40;99.90;;;;;;4979738;28;20175;-73
2023/08/30 05:35:08;;;;;;;22.27;20.33;;;13.50;99.90;;;;;;4981667;28;20207;-73
2023/08/30 05:37:34;;;;;;;17.47;15.97;;;13.60;99.90;;;;;;4984595;28;20172;-73
2023/08/30 05:39:59;;;;;;;16.97;15.37;;;13.60;99.90;;;;;;4987804;28;20185;-73
2023/08/30 05:42:25;;;;;;;16.00;14.70;;;13.60;99.90;;;;;;4971020;28;20208;-73
2023/08/30 05:44:50;;;;;;;16.13;14.67;;;13.70;99.90;;;;;;4972424;28;20191;-73
2023/08/30 05:47:17;;;;;;;15.10;13.60;;;13.60;99.90;;;;;;4970342;28;20210;-74
2023/08/30 05:49:43;;;;;;;17.07;15.37;;;13.70;99.90;;;;;;4977669;28;20179;-74
2023/08/30 05:52:08;;;;;;;14.53;13.33;;;13.90;99.90;;;;;;4981024;28;20463;-74
2023/08/30 05:54:34;;;;;;;14.03;12.83;;;13.90;99.90;;;;;;4973030;28;20172;-73
2023/08/30 05:56:59;;;;;;;13.50;12.40;;;13.90;99.90;;;;;;4969588;28;20243;-73
2023/08/30 05:59:25;;;;;;;15.70;14.20;;;13.90;99.90;;;;;;4965878;28;20650;-73
2023/08/30 06:01:51;;;;;;;14.17;12.97;;;14.00;99.90;;;;;;4969596;28;20217;-73
2023/08/30 06:04:16;;;;;;;14.23;13.10;;;14.10;99.90;;;;;;4967220;28;20207;-73
2023/08/30 06:06:42;;;;;;;15.33;13.87;;;14.10;99.90;;;;;;4966813;28;20653;-74
2023/08/30 06:09:07;;;;;;;14.10;12.90;;;14.10;99.90;;;;;;4973444;28;20184;-73
2023/08/30 06:11:33;;;;;;;14.27;13.07;;;14.10;99.90;;;;;;4973099;28;20243;-73
2023/08/30 06:13:59;;;;;;;13.47;12.13;;;14.10;99.90;;;;;;4982259;28;20180;-73
2023/08/30 06:16:25;;;;;;;12.57;11.50;;;14.20;99.90;;;;;;4987816;28;20470;-73
2023/08/30 06:18:50;;;;;;;13.00;12.00;;;14.30;99.90;;;;;;4995593;28;20179;-74
2023/08/30 06:21:16;;;;;;;13.60;12.20;;;14.40;99.90;;;;;;4988841;28;20523;-73
2023/08/30 06:23:41;;;;;;;13.90;12.70;;;14.40;99.90;;;;;;4974508;28;20187;-73
2023/08/30 06:26:07;;;;;;;12.00;11.00;;;14.50;99.90;;;;;;4975870;28;20334;-73
2023/08/30 06:28:32;;;;;;;11.23;10.37;;;14.60;99.90;;;;;;4982094;28;20190;-73
2023/08/30 06:30:58;;;;;;;13.13;11.83;;;14.80;99.90;;;;;;4978954;28;20745;-73
2023/08/30 06:33:24;;;;;;;13.97;12.40;;;14.80;99.90;;;;;;4973920;28;20577;-73
2023/08/30 06:35:53;;;;;;;11.63;10.67;;;14.80;99.90;;;;;;4976455;28;20184;-73
2023/08/30 06:38:19;;;;;;;11.70;10.80;;;15.00;99.90;;;;;;4974915;28;20922;-74
2023/08/30 06:40:45;;;;;;;12.20;11.30;;;15.10;99.90;;;;;;4975624;28;20960;-74
2023/08/30 06:43:11;;;;;;;12.27;11.30;;;15.00;99.90;;;;;;4974652;28;20435;-74
2023/08/30 06:45:39;;;;;;;13.17;11.97;;;15.00;99.90;;;;;;4988110;28;20455;-74
2023/08/30 06:48:06;;;;;;;12.27;11.23;;;14.90;99.90;;;;;;4982671;28;20944;-74
2023/08/30 06:50:31;;;;;;;11.27;10.37;;;14.80;99.90;;;;;;4969256;28;20447;-74
2023/08/30 06:52:57;;;;;;;10.93;10.03;;;14.80;99.90;;;;;;4974028;28;20443;-74
2023/08/30 06:55:22;;;;;;;9.80;9.10;;;14.90;99.90;;;;;;4985446;28;20199;-74
2023/08/30 06:57:49;;;;;;;11.73;10.77;;;14.80;99.90;;;;;;4973377;28;20180;-74
2023/08/30 07:00:15;;;;;;;11.40;10.50;;;14.90;99.90;;;;;;4969490;28;20454;-74
2023/08/30 07:02:44;;;;;;;11.43;10.30;;;14.80;99.90;;;;;;4971113;28;20443;-74
2023/08/30 07:05:10;;;;;;;11.30;10.40;;;14.80;99.90;;;;;;4976647;28;20546;-74
2023/08/30 07:07:36;;;;;;;11.63;10.73;;;15.00;99.90;;;;;;4974053;28;20514;-74
2023/08/30 07:10:02;;;;;;;11.10;10.30;;;15.00;99.90;;;;;;4981702;28;20191;-74
2023/08/30 07:12:28;;;;;;;10.67;9.60;;;15.10;99.90;;;;;;4970038;28;20227;-74
2023/08/30 07:14:54;;;;;;;10.90;10.00;;;15.10;99.90;;;;;;4974619;28;20439;-74
2023/08/30 07:17:20;;;;;;;12.63;11.60;;;15.20;99.90;;;;;;4974932;28;20173;-74
2023/08/30 07:19:45;;;;;;;12.30;11.30;;;15.10;99.90;;;;;;4980250;28;20167;-74
2023/08/30 07:22:11;;;;;;;11.77;10.77;;;14.90;99.90;;;;;;4983166;28;20191;-74
2023/08/30 07:24:36;;;;;;;12.20;11.17;;;14.70;99.90;;;;;;4970442;28;20177;-74
2023/08/30 07:27:02;;;;;;;12.93;11.93;;;14.70;99.90;;;;;;4956265;28;20706;-74
2023/08/30 07:29:28;;;;;;;12.40;11.20;;;14.80;99.90;;;;;;4959388;28;20431;-74
2023/08/30 07:31:54;;;;;;;11.43;10.40;;;14.70;99.90;;;;;;4982445;28;20291;-74
2023/08/30 07:34:20;;;;;;;11.83;10.63;;;14.70;99.90;;;;;;4988502;28;20207;-74
2023/08/30 07:36:45;;;;;;;10.37;9.57;;;14.80;99.90;;;;;;4995052;28;20493;-74
2023/08/30 07:39:11;;;;;;;11.40;10.43;;;14.90;99.90;;;;;;4981626;28;20592;-74
2023/08/30 07:41:37;;;;;;;9.90;9.10;;;15.00;99.90;;;;;;4976400;28;20181;-74
2023/08/30 07:44:03;;;;;;;10.90;10.00;;;15.10;99.90;;;;;;4991622;28;20176;-74
2023/08/30 07:46:28;;;;;;;10.33;9.53;;;15.10;99.90;;;;;;4983215;28;20632;-73
2023/08/30 07:48:54;;;;;;;11.17;10.03;;;15.10;99.90;;;;;;4972206;28;20526;-73
2023/08/30 07:51:19;;;;;;;9.90;8.93;;;15.50;99.90;;;;;;4970507;28;20275;-72
2023/08/30 07:53:45;;;;;;;9.80;9.07;;;15.20;99.90;;;;;;4973333;28;21997;-70
2023/08/30 07:56:10;;;;;;;9.20;8.50;;;15.20;99.90;;;;;;4970257;28;20694;-71
2023/08/30 07:58:36;;;;;;;10.20;9.40;;;15.20;99.90;;;;;;4972254;28;20231;-69
2023/08/30 08:01:01;;;;;;;9.30;8.30;;;15.20;99.90;;;;;;4983852;28;20203;-76
2023/08/30 08:03:27;;;;;;;10.70;9.20;;;15.40;99.90;;;;;;4968755;28;20207;-73
2023/08/30 08:05:53;;;;;;;10.50;9.50;;;15.30;99.90;;;;;;4990658;28;20199;-73
2023/08/30 08:08:18;;;;;;;9.73;8.93;;;15.40;99.90;;;;;;4973072;28;20278;-73
2023/08/30 08:10:44;;;;;;;10.37;9.50;;;15.30;99.90;;;;;;4973187;28;20216;-72
2023/08/30 08:13:09;;;;;;;9.13;8.47;;;15.50;99.90;;;;;;4973824;28;20581;-72
2023/08/30 08:15:35;;;;;;;9.23;8.53;;;15.40;99.90;;;;;;4974508;28;20216;-73
2023/08/30 08:18:01;;;;;;;11.00;10.17;;;15.30;99.90;;;;;;4981552;28;20667;-72
2023/08/30 08:20:29;;;;;;;10.43;9.63;;;15.40;99.90;;;;;;4982155;28;20191;-71
2023/08/30 08:22:54;;;;;;;10.40;9.50;;;15.30;99.90;;;;;;4974770;28;20431;-71
2023/08/30 08:25:22;;;;;;;10.37;9.50;;;15.10;99.90;;;;;;4973225;28;21001;-72
2023/08/30 08:27:47;;;;;;;9.83;9.17;;;15.10;99.90;;;;;;4982949;28;20184;-72
2023/08/30 08:30:13;;;;;;;9.90;9.20;;;15.20;99.90;;;;;;4990005;28;20501;-72
2023/08/30 08:32:39;;;;;;;9.80;9.10;;;15.30;99.90;;;;;;4974698;28;20701;-73
2023/08/30 08:35:04;;;;;;;10.53;9.73;;;15.40;99.90;;;;;;4974383;28;20843;-72
2023/08/30 08:37:31;;;;;;;9.83;8.90;;;15.60;99.90;;;;;;4969983;28;20203;-72
2023/08/30 08:39:57;;;;;;;11.47;10.63;;;15.60;99.90;;;;;;4982629;28;20443;-72
2023/08/30 08:42:22;;;;;;;10.57;9.77;;;15.80;99.90;;;;;;4972193;28;20450;-73
2023/08/30 08:44:51;;;;;;;9.67;8.97;;;15.90;99.90;;;;;;4972960;28;20176;-73
2023/08/30 08:47:19;;;;;;;8.53;7.83;;;15.90;99.90;;;;;;4973225;28;20173;-73
2023/08/30 08:49:45;;;;;;;9.13;8.47;;;16.20;99.90;;;;;;4980835;28;20527;-73
2023/08/30 08:52:11;;;;;;;9.47;8.73;;;16.50;99.90;;;;;;4969605;28;20467;-73
2023/08/30 08:54:40;;;;;;;8.77;8.17;;;16.60;99.90;;;;;;4986506;28;20431;-73
2023/08/30 08:57:07;;;;;;;8.20;7.60;;;16.80;99.90;;;;;;4991906;28;20435;-73
2023/08/30 08:59:32;;;;;;;7.87;7.30;;;17.00;99.90;;;;;;4988908;28;20411;-73
2023/08/30 09:01:59;;;;;;;7.80;7.20;;;17.10;99.90;;;;;;4970626;28;20427;-72
2023/08/30 09:04:25;;;;;;;7.63;6.93;;;17.30;99.90;;;;;;4971830;28;20192;-73
2023/08/30 09:06:51;;;;;;;6.97;6.57;;;17.60;99.90;;;;;;4985328;28;20482;-73
2023/08/30 09:09:17;;;;;;;6.97;6.47;;;18.10;99.90;;;;;;4971656;28;20180;-73
2023/08/30 09:11:43;;;;;;;10.23;9.53;;;18.30;99.90;;;;;;4969249;28;20463;-73
2023/08/30 09:14:09;;;;;;;6.70;6.20;;;18.50;99.90;;;;;;4970943;28;20436;-72
2023/08/30 09:16:34;;;;;;;7.10;6.50;;;19.10;99.90;;;;;;4970498;28;20261;-73
2023/08/30 09:19:01;;;;;;;5.97;5.37;;;19.10;99.90;;;;;;4972804;28;20850;-73
2023/08/30 09:21:27;;;;;;;6.40;6.00;;;19.30;99.90;;;;;;4985910;28;20176;-73
2023/08/30 09:23:58;;;;;;;5.40;5.00;;;19.50;99.90;;;;;;4973081;28;20570;-72
2023/08/30 09:26:24;;;;;;;6.50;6.00;;;19.80;99.90;;;;;;4972139;28;20439;-72
2023/08/30 09:28:50;;;;;;;5.90;5.40;;;19.90;99.90;;;;;;4968557;28;20435;-73
2023/08/30 09:31:21;;;;;;;5.60;5.10;;;20.00;99.90;;;;;;4970942;28;20994;-73
2023/08/30 09:33:50;;;;;;;5.57;5.17;;;20.30;99.90;;;;;;4970755;28;20180;-73
2023/08/30 09:36:16;;;;;;;5.03;4.60;;;20.70;99.90;;;;;;4979497;28;20434;-73
2023/08/30 09:38:48;;;;;;;5.43;5.13;;;21.10;99.90;;;;;;4991810;28;20422;-72
2023/08/30 09:41:14;;;;;;;5.50;5.17;;;21.40;99.90;;;;;;4970895;28;20195;-72
2023/08/30 09:43:43;;;;;;;5.30;4.63;;;22.00;99.90;;;;;;4972193;28;20960;-72
2023/08/30 09:46:09;;;;;;;4.30;4.00;;;22.10;99.90;;;;;;4965000;28;20331;-72
2023/08/30 09:48:34;;;;;;;4.83;4.13;;;22.20;99.90;;;;;;4971907;28;20514;-72
2023/08/30 09:51:07;;;;;;;4.93;4.47;;;21.80;99.90;;;;;;4980101;28;20196;-72
2023/08/30 09:53:40;;;;;;;3.60;3.40;;;21.80;99.90;;;;;;4972274;28;20544;-72
2023/08/30 09:56:08;;;;;;;5.27;3.90;;;22.30;99.90;;;;;;4972044;28;20813;-72
2023/08/30 09:58:34;;;;;;;3.33;3.13;;;23.10;99.90;;;;;;4972538;28;20427;-72
2023/08/30 10:01:02;;;;;;;3.97;3.57;;;23.40;99.90;;;;;;4970958;28;20435;-72
2023/08/30 10:03:29;;;;;;;3.77;3.57;;;23.40;99.90;;;;;;4971429;28;20515;-73
2023/08/30 10:05:56;;;;;;;3.40;3.20;;;24.10;99.90;;;;;;4979315;28;20457;-73
2023/08/30 10:08:23;;;;;;;3.40;2.47;;;25.70;99.90;;;;;;4985411;28;20411;-73
2023/08/30 10:10:50;;;;;;;3.13;2.90;;;26.90;99.90;;;;;;4987683;28;20507;-73
2023/08/30 10:13:18;;;;;;;3.20;2.90;;;26.60;99.90;;;;;;4969591;28;20849;-71
2023/08/30 10:15:48;;;;;;;3.30;3.07;;;26.90;99.90;;;;;;4972390;28;20550;-70
2023/08/30 10:18:20;;;;;;;3.17;2.97;;;27.80;99.90;;;;;;4969431;28;20443;-71
2023/08/30 10:20:47;;;;;;;3.37;3.10;;;28.00;99.90;;;;;;4978758;28;20443;-70
2023/08/30 10:23:14;;;;;;;3.70;3.50;;;27.30;99.90;;;;;;4980889;28;20485;-70
2023/08/30 10:25:41;;;;;;;3.77;3.47;;;27.80;99.90;;;;;;4972601;28;20448;-70
2023/08/30 10:28:08;;;;;;;3.80;3.53;;;28.50;98.50;;;;;;4972693;28;20827;-70
2023/08/30 10:30:33;;;;;;;3.43;3.23;;;27.50;96.90;;;;;;4970616;28;20438;-70
2023/08/30 10:32:59;;;;;;;3.43;3.10;;;27.30;98.80;;;;;;4966628;28;20435;-70
2023/08/30 10:35:25;;;;;;;3.40;3.10;;;28.30;96.90;;;;;;4977803;28;20203;-70
2023/08/30 10:37:55;;;;;;;2.87;2.70;;;28.30;94.40;;;;;;4982539;28;20616;-70
2023/08/30 10:40:22;;;;;;;2.80;2.70;;;29.30;94.20;;;;;;4971139;28;20223;-72
2023/08/30 10:42:58;;;;;;;2.77;2.57;;;30.70;92.30;;;;;;4970424;28;20436;-73
2023/08/30 10:45:24;;;;;;;3.63;3.00;;;30.00;90.10;;;;;;4966579;28;20448;-72
2023/08/30 10:47:55;;;;;;;2.87;2.60;;;29.30;90.00;;;;;;4971858;28;20435;-72
2023/08/30 10:50:31;;;;;;;2.63;2.43;;;29.30;90.90;;;;;;4969004;28;20455;-73
2023/08/30 10:52:57;;;;;;;2.57;2.37;;;30.00;87.40;;;;;;4973624;28;20442;-72
2023/08/30 10:55:23;;;;;;;2.97;2.77;;;29.60;88.90;;;;;;4989179;28;20447;-72
2023/08/30 10:57:59;;;;;;;2.93;2.83;;;28.70;89.30;;;;;;4976146;28;20167;-72
2023/08/30 11:00:27;;;;;;;2.50;2.30;;;28.30;90.00;;;;;;4975513;28;20914;-72
2023/08/30 11:02:53;;;;;;;3.10;2.90;;;29.00;90.10;;;;;;4975137;28;20438;-72
2023/08/30 11:05:22;;;;;;;3.43;3.13;;;27.70;90.10;;;;;;4975167;28;20448;-72
2023/08/30 11:07:50;;;;;;;3.10;2.90;;;26.50;91.90;;;;;;4983105;28;20434;-72
2023/08/30 11:10:17;;;;;;;3.10;2.90;;;26.50;92.40;;;;;;4993591;28;20951;-72
2023/08/30 11:12:44;;;;;;;2.87;2.67;;;27.30;91.80;;;;;;4974875;28;20836;-72
2023/08/30 11:15:11;;;;;;;3.03;2.83;;;28.20;90.10;;;;;;4976332;28;20532;-72
2023/08/30 11:17:36;;;;;;;3.17;2.97;;;28.60;87.60;;;;;;4975761;28;20415;-72
2023/08/30 11:20:10;;;;;;;2.90;2.40;;;28.20;86.30;;;;;;4973479;28;20486;-72
2023/08/30 11:22:46;;;;;;;2.13;2.03;;;27.50;90.80;;;;;;4977072;28;20185;-72
2023/08/30 11:25:13;;;;;;;3.00;2.67;;;28.00;90.50;;;;;;4975481;28;20451;-72
2023/08/30 11:27:39;;;;;;;2.87;2.67;;;28.90;88.70;;;;;;4975718;28;20842;-70
2023/08/30 11:30:06;;;;;;;2.67;2.57;;;29.30;84.80;;;;;;4974340;28;20477;-72
2023/08/30 11:32:36;;;;;;;2.93;2.80;;;28.30;84.90;;;;;;4971698;28;20517;-70
2023/08/30 11:35:02;;;;;;;3.13;2.93;;;27.40;87.10;;;;;;4974529;28;20451;-71
2023/08/30 11:37:28;;;;;;;3.20;3.00;;;26.40;91.00;;;;;;4983426;28;20431;-71
2023/08/30 11:39:55;;;;;;;3.40;2.97;;;25.10;92.90;;;;;;4991861;28;20986;-72
2023/08/30 11:42:21;;;;;;;2.80;2.70;;;24.10;96.50;;;;;;4978769;28;20267;-72
2023/08/30 11:44:47;;;;;;;2.77;2.57;;;23.60;99.50;;;;;;4974645;28;20498;-72
2023/08/30 11:47:23;;;;;;;3.20;3.00;;;23.40;99.90;;;;;;4977400;28;20450;-71
2023/08/30 11:49:50;;;;;;;3.40;3.20;;;23.10;99.90;;;;;;4985930;28;20426;-71
2023/08/30 11:52:17;;;;;;;2.87;2.67;;;21.70;99.90;;;;;;4978148;28;20463;-71
2023/08/30 11:54:44;;;;;;;3.43;3.13;;;21.30;99.90;;;;;;4980385;28;20450;-71
2023/08/30 11:57:09;;;;;;;4.27;3.90;;;20.90;99.90;;;;;;4987167;28;20459;-71
2023/08/30 11:59:36;;;;;;;4.50;4.20;;;20.40;99.90;;;;;;4971744;28;20809;-71
2023/08/30 12:02:02;;;;;;;5.23;4.80;;;19.60;99.90;;;;;;4974948;28;20242;-71
2023/08/30 12:04:29;;;;;;;5.70;5.30;;;18.70;99.90;;;;;;4973726;28;20530;-71
2023/08/30 12:06:54;;;;;;;6.63;6.20;;;17.90;99.90;;;;;;4981281;28;20496;-71
2023/08/30 12:09:23;;;;;;;7.33;6.80;;;17.90;99.90;;;;;;4976799;28;20187;-71
2023/08/30 12:11:51;;;;;;;8.63;8.03;;;17.40;99.90;;;;;;4973883;28;20208;-71
2023/08/30 12:14:17;;;;;;;8.03;7.43;;;17.20;99.90;;;;;;4973155;28;20463;-71
2023/08/30 12:16:43;;;;;;;8.20;7.60;;;17.10;99.90;;;;;;4974551;28;20483;-72
2023/08/30 12:19:10;;;;;;;10.03;7.57;;;17.20;99.90;;;;;;4971348;28;20244;-71
2023/08/30 12:21:43;;;;;;;8.13;6.13;;;17.20;99.90;;;;;;4989253;28;20971;-72
2023/08/30 12:24:09;;;;;;;6.13;5.53;;;17.20;99.90;;;;;;4973991;28;20435;-71
2023/08/30 12:26:37;;;;;;;5.67;5.30;;;17.20;99.90;;;;;;4974469;28;20444;-71
2023/08/30 12:29:03;;;;;;;6.50;6.07;;;17.20;99.90;;;;;;4973877;28;20929;-71
2023/08/30 12:31:28;;;;;;;5.20;4.80;;;17.20;99.90;;;;;;4972469;28;20515;-71